createdAt,value
2019-03-01T00:02:13.971Z,99658.84
2019-03-01T00:05:31.714Z,99664.80
2019-03-01T00:08:10.502Z,99661.55
2019-03-01T00:10:52.807Z,99665.52
2019-03-01T00:14:06.869Z,99671.77
2019-03-01T00:17:09.457Z,99667.30
2019-03-01T00:19:56.758Z,99668.75
2019-03-01T00:22:52.422Z,99662.03
2019-03-01T00:26:08.677Z,99657.86
2019-03-01T00:29:11.758Z,99661.98
2019-03-01T00:32:25.979Z,99666.41
2019-03-01T00:35:30.232Z,99660.63
2019-03-01T00:38:38.779Z,99657.81
2019-03-01T00:41:17.771Z,99653.13
2019-03-01T00:44:18.173Z,99643.39
2019-03-01T00:46:46.166Z,99642.20
2019-03-01T00:49:14.074Z,99645.89
2019-03-01T00:51:42.007Z,99646.16
2019-03-01T00:54:10.066Z,99640.90
2019-03-01T00:56:37.913Z,99633.02
2019-03-01T00:59:06.472Z,99623.91
2019-03-01T01:01:34.507Z,99626.25
2019-03-01T01:04:02.385Z,99625.36
2019-03-01T01:06:30.913Z,99620.30
2019-03-01T01:08:58.757Z,99627.56
2019-03-01T01:11:26.563Z,99617.37
2019-03-01T01:13:55.010Z,99619.45
2019-03-01T01:16:22.918Z,99619.51
2019-03-01T01:18:50.805Z,99615.69
2019-03-01T01:21:18.704Z,99613.21
2019-03-01T01:23:46.652Z,99619.95
2019-03-01T01:26:14.692Z,99621.52
2019-03-01T01:28:42.626Z,99616.34
2019-03-01T01:31:10.563Z,99613.00
2019-03-01T01:33:38.354Z,99616.34
2019-03-01T01:36:06.365Z,99619.72
2019-03-01T01:38:34.423Z,99622.75
2019-03-01T01:41:02.330Z,99618.34
2019-03-01T01:43:30.893Z,99617.11
2019-03-01T01:45:58.927Z,99610.86
2019-03-01T01:48:26.809Z,99614.09
2019-03-01T01:50:54.995Z,99609.55
2019-03-01T01:53:22.872Z,99610.05
2019-03-01T01:55:50.781Z,99599.77
2019-03-01T01:58:18.667Z,99597.59
2019-03-01T02:00:46.678Z,99594.78
2019-03-01T02:03:14.651Z,99599.66
2019-03-01T02:05:43.013Z,99591.20
2019-03-01T02:08:10.954Z,99593.50
2019-03-01T02:10:39.155Z,99598.42
2019-03-01T02:13:06.994Z,99601.35
2019-03-01T02:15:34.887Z,99607.25
2019-03-01T02:18:03.222Z,99599.17
2019-03-01T02:20:31.208Z,99603.54
2019-03-01T02:22:59.257Z,99597.24
2019-03-01T02:25:27.646Z,99585.67
2019-03-01T02:27:55.555Z,99590.42
2019-03-01T02:30:24.972Z,99589.23
2019-03-01T02:32:52.865Z,99585.91
2019-03-01T02:35:22.713Z,99582.87
2019-03-01T02:37:50.752Z,99573.61
2019-03-01T02:40:18.806Z,99580.61
2019-03-01T02:42:46.863Z,99574.66
2019-03-01T02:45:16.543Z,99568.02
2019-03-01T02:47:44.487Z,99572.25
2019-03-01T02:50:13.308Z,99571.38
2019-03-01T02:52:41.304Z,99572.98
2019-03-01T02:55:10.995Z,99573.61
2019-03-01T02:57:38.917Z,99575.22
2019-03-01T03:00:10.225Z,99575.16
2019-03-01T03:02:44.181Z,99569.20
2019-03-01T03:05:12.167Z,99565.95
2019-03-01T03:08:11.631Z,99573.16
2019-03-01T03:10:39.486Z,99577.20
2019-03-01T03:13:08.996Z,99586.53
2019-03-01T03:15:41.953Z,99584.06
2019-03-01T03:18:09.873Z,99586.34
2019-03-01T03:20:38.247Z,99587.59
2019-03-01T03:23:06.395Z,99582.63
2019-03-01T03:25:34.255Z,99590.17
2019-03-01T03:28:02.174Z,99587.13
2019-03-01T03:30:30.151Z,99592.73
2019-03-01T03:32:58.168Z,99592.39
2019-03-01T03:35:26.352Z,99586.28
2019-03-01T03:37:54.276Z,99582.83
2019-03-01T03:40:22.231Z,99578.20
2019-03-01T03:42:50.230Z,99575.56
2019-03-01T03:45:18.247Z,99573.75
2019-03-01T03:47:46.298Z,99572.31
2019-03-01T03:50:14.370Z,99562.81
2019-03-01T03:52:42.352Z,99557.55
2019-03-01T03:55:11.557Z,99559.50
2019-03-01T03:57:39.556Z,99559.50
2019-03-01T04:00:11.627Z,99568.20
2019-03-01T04:02:39.649Z,99565.45
2019-03-01T04:05:07.651Z,99563.79
2019-03-01T04:07:36.084Z,99558.53
2019-03-01T04:10:04.724Z,99566.77
2019-03-01T04:12:32.652Z,99562.19
2019-03-01T04:15:00.485Z,99557.68
2019-03-01T04:17:28.568Z,99554.58
2019-03-01T04:19:56.400Z,99556.71
2019-03-01T04:22:24.157Z,99550.98
2019-03-01T04:24:51.973Z,99552.02
2019-03-01T04:27:19.725Z,99550.01
2019-03-01T04:29:47.730Z,99552.48
2019-03-01T04:32:16.288Z,99551.51
2019-03-01T04:34:44.101Z,99547.44
2019-03-01T04:37:11.878Z,99542.39
2019-03-01T04:39:39.675Z,99551.73
2019-03-01T04:42:07.444Z,99545.44
2019-03-01T04:44:35.289Z,99551.26
2019-03-01T04:47:03.260Z,99560.81
2019-03-01T04:49:31.218Z,99563.10
2019-03-01T04:51:59.160Z,99558.18
2019-03-01T04:54:27.090Z,99563.45
2019-03-01T04:56:54.857Z,99563.45
2019-03-01T04:59:22.757Z,99557.84
2019-03-01T05:01:50.524Z,99554.23
2019-03-01T05:04:18.357Z,99556.52
2019-03-01T05:06:52.564Z,99558.93
2019-03-01T05:09:20.401Z,99558.12
2019-03-01T05:11:48.180Z,99552.70
2019-03-01T05:14:16.081Z,99550.07
2019-03-01T05:16:43.983Z,99550.92
2019-03-01T05:19:11.796Z,99547.31
2019-03-01T05:21:39.585Z,99552.23
2019-03-01T05:24:07.431Z,99545.66
2019-03-01T05:26:35.221Z,99548.56
2019-03-01T05:29:03.938Z,99553.33
2019-03-01T05:31:32.293Z,99555.61
2019-03-01T05:34:00.120Z,99553.83
2019-03-01T05:36:27.906Z,99553.67
2019-03-01T05:38:55.821Z,99550.07
2019-03-01T05:41:23.708Z,99559.16
2019-03-01T05:43:53.433Z,99554.86
2019-03-01T05:46:21.272Z,99551.04
2019-03-01T05:48:49.182Z,99558.12
2019-03-01T05:51:21.058Z,99557.42
2019-03-01T05:53:49.402Z,99560.06
2019-03-01T05:56:17.196Z,99559.28
2019-03-01T05:58:47.594Z,99559.22
2019-03-01T06:01:55.194Z,99562.69
2019-03-01T06:04:32.872Z,99559.09
2019-03-01T06:07:17.467Z,99546.06
2019-03-01T06:10:18.924Z,99549.88
2019-03-01T06:13:09.520Z,99548.91
2019-03-01T06:16:04.625Z,99551.20
2019-03-01T06:19:05.701Z,99536.10
2019-03-01T06:22:16.738Z,99541.36
2019-03-01T06:24:55.683Z,99552.86
2019-03-01T06:27:58.632Z,99551.89
2019-03-01T06:31:01.890Z,99551.20
2019-03-01T06:34:02.001Z,99547.72
2019-03-01T06:36:59.163Z,99549.19
2019-03-01T06:40:41.430Z,99556.11
2019-03-01T06:43:22.454Z,99551.48
2019-03-01T06:46:29.759Z,99556.39
2019-03-01T06:49:16.974Z,99555.20
2019-03-01T06:51:44.816Z,99557.09
2019-03-01T06:54:12.847Z,99559.09
2019-03-01T06:56:40.688Z,99557.15
2019-03-01T06:59:08.453Z,99557.77
2019-03-01T07:01:44.098Z,99560.41
2019-03-01T07:04:15.742Z,99554.64
2019-03-01T07:06:43.682Z,99554.52
2019-03-01T07:09:11.685Z,99552.70
2019-03-01T07:11:39.644Z,99556.37
2019-03-01T07:14:07.428Z,99561.16
2019-03-01T07:16:36.073Z,99553.27
2019-03-01T07:19:04.067Z,99556.59
2019-03-01T07:21:32.011Z,99551.05
2019-03-01T07:23:59.804Z,99561.28
2019-03-01T07:26:27.621Z,99558.03
2019-03-01T07:28:55.660Z,99560.38
2019-03-01T07:31:23.613Z,99548.88
2019-03-01T07:33:51.431Z,99545.96
2019-03-01T07:36:19.287Z,99544.42
2019-03-01T07:38:47.203Z,99546.60
2019-03-01T07:41:15.760Z,99548.42
2019-03-01T07:43:43.607Z,99556.11
2019-03-01T07:46:11.490Z,99553.92
2019-03-01T07:48:39.336Z,99557.88
2019-03-01T07:51:07.238Z,99554.27
2019-03-01T07:53:41.748Z,99550.95
2019-03-01T07:56:06.888Z,99561.95
2019-03-01T07:58:34.727Z,99552.27
2019-03-01T08:01:02.816Z,99555.23
2019-03-01T08:03:30.718Z,99554.61
2019-03-01T08:05:58.600Z,99555.77
2019-03-01T08:08:26.461Z,99555.77
2019-03-01T08:10:56.567Z,99557.42
2019-03-01T08:13:27.022Z,99561.88
2019-03-01T08:15:54.973Z,99569.27
2019-03-01T08:18:22.945Z,99566.12
2019-03-01T08:20:50.744Z,99567.72
2019-03-01T08:23:18.800Z,99564.23
2019-03-01T08:25:46.582Z,99570.00
2019-03-01T08:28:14.522Z,99567.84
2019-03-01T08:30:45.760Z,99573.63
2019-03-01T08:33:13.243Z,99570.74
2019-03-01T08:35:41.024Z,99567.20
2019-03-01T08:38:08.969Z,99575.28
2019-03-01T08:40:37.325Z,99575.22
2019-03-01T08:43:11.750Z,99579.45
2019-03-01T08:45:35.219Z,99580.36
2019-03-01T08:48:03.197Z,99580.02
2019-03-01T08:50:31.163Z,99579.64
2019-03-01T08:53:03.257Z,99579.72
2019-03-01T08:55:31.842Z,99578.98
2019-03-01T08:58:03.430Z,99577.90
2019-03-01T09:00:31.003Z,99574.70
2019-03-01T09:03:02.608Z,99572.99
2019-03-01T09:05:30.509Z,99568.52
2019-03-01T09:07:58.543Z,99565.72
2019-03-01T09:10:29.193Z,99561.25
2019-03-01T09:12:56.120Z,99562.22
2019-03-01T09:15:24.089Z,99557.88
2019-03-01T09:17:51.910Z,99560.16
2019-03-01T09:20:19.660Z,99561.25
2019-03-01T09:22:47.896Z,99547.86
2019-03-01T09:25:16.558Z,99555.92
2019-03-01T09:27:44.403Z,99552.61
2019-03-01T09:30:16.033Z,99540.12
2019-03-01T09:32:43.979Z,99543.10
2019-03-01T09:35:31.379Z,99531.20
2019-03-01T09:37:59.604Z,99534.17
2019-03-01T09:40:28.873Z,99530.85
2019-03-01T09:42:57.394Z,99537.91
2019-03-01T09:45:25.335Z,99536.25
2019-03-01T09:47:53.299Z,99542.36
2019-03-01T09:50:21.343Z,99529.20
2019-03-01T09:52:49.141Z,99534.41
2019-03-01T09:55:17.255Z,99535.33
2019-03-01T09:57:45.219Z,99529.21
2019-03-01T10:00:13.914Z,99533.32
2019-03-01T10:02:41.805Z,99534.48
2019-03-01T10:05:11.316Z,99534.48
2019-03-01T10:07:39.203Z,99544.29
2019-03-01T10:10:09.341Z,99536.41
2019-03-01T10:12:37.106Z,99535.17
2019-03-01T10:15:06.255Z,99526.56
2019-03-01T10:17:34.846Z,99526.73
2019-03-01T10:20:03.375Z,99527.02
2019-03-01T10:22:31.312Z,99528.78
2019-03-01T10:24:59.248Z,99536.36
2019-03-01T10:27:27.037Z,99527.90
2019-03-01T10:29:54.930Z,99527.52
2019-03-01T10:32:22.748Z,99517.16
2019-03-01T10:34:50.583Z,99514.14
2019-03-01T10:37:18.434Z,99508.75
2019-03-01T10:39:52.800Z,99507.38
2019-03-01T10:42:16.046Z,99498.03
2019-03-01T10:44:43.995Z,99501.62
2019-03-01T10:47:11.853Z,99498.39
2019-03-01T10:49:39.784Z,99499.69
2019-03-01T10:52:07.652Z,99500.14
2019-03-01T10:54:35.536Z,99498.97
2019-03-01T10:57:03.488Z,99499.46
2019-03-01T10:59:31.337Z,99506.30
2019-03-01T11:01:59.186Z,99498.97
2019-03-01T11:04:27.132Z,99502.80
2019-03-01T11:06:55.898Z,99500.95
2019-03-01T11:09:23.719Z,99495.80
2019-03-01T11:11:51.664Z,99501.36
2019-03-01T11:14:19.608Z,99505.98
2019-03-01T11:16:47.467Z,99513.17
2019-03-01T11:19:15.283Z,99510.53
2019-03-01T11:21:43.953Z,99519.56
2019-03-01T11:24:11.750Z,99519.58
2019-03-01T11:26:39.610Z,99518.35
2019-03-01T11:29:07.474Z,99517.20
2019-03-01T11:31:35.672Z,99514.92
2019-03-01T11:34:03.665Z,99516.95
2019-03-01T11:36:31.464Z,99524.33
2019-03-01T11:38:59.239Z,99526.43
2019-03-01T11:41:27.168Z,99522.20
2019-03-01T11:43:54.924Z,99525.42
2019-03-01T11:46:23.001Z,99533.23
2019-03-01T11:48:51.445Z,99535.15
2019-03-01T11:51:25.439Z,99533.49
2019-03-01T11:53:53.268Z,99529.43
2019-03-01T11:56:21.157Z,99532.02
2019-03-01T11:58:49.013Z,99528.91
2019-03-01T12:01:17.590Z,99529.89
2019-03-01T12:03:45.603Z,99525.73
2019-03-01T12:06:13.514Z,99523.27
2019-03-01T12:08:41.391Z,99524.30
2019-03-01T12:11:10.190Z,99517.02
2019-03-01T12:13:37.986Z,99523.91
2019-03-01T12:16:05.913Z,99530.84
2019-03-01T12:18:33.783Z,99525.11
2019-03-01T12:21:01.592Z,99531.48
2019-03-01T12:23:29.348Z,99528.80
2019-03-01T12:25:57.212Z,99523.02
2019-03-01T12:28:24.992Z,99523.87
2019-03-01T12:30:52.941Z,99527.52
2019-03-01T12:33:21.792Z,99528.45
2019-03-01T12:35:50.497Z,99528.78
2019-03-01T12:38:18.288Z,99529.63
2019-03-01T12:40:46.299Z,99529.77
2019-03-01T12:43:14.291Z,99521.00
2019-03-01T12:45:42.703Z,99516.49
2019-03-01T12:48:11.373Z,99516.45
2019-03-01T12:50:39.190Z,99522.00
2019-03-01T12:53:06.984Z,99521.19
2019-03-01T12:55:34.964Z,99516.61
2019-03-01T12:58:02.853Z,99517.42
2019-03-01T13:00:30.937Z,99513.13
2019-03-01T13:02:58.783Z,99506.20
2019-03-01T13:05:29.118Z,99510.49
2019-03-01T13:07:56.397Z,99507.22
2019-03-01T13:10:25.824Z,99512.83
2019-03-01T13:12:54.651Z,99508.07
2019-03-01T13:15:22.853Z,99507.39
2019-03-01T13:17:50.889Z,99505.91
2019-03-01T13:20:18.737Z,99508.88
2019-03-01T13:22:46.746Z,99502.80
2019-03-01T13:25:15.745Z,99497.66
2019-03-01T13:27:44.286Z,99501.86
2019-03-01T13:30:17.018Z,99513.02
2019-03-01T13:32:45.106Z,99509.97
2019-03-01T13:35:13.479Z,99520.92
2019-03-01T13:37:41.541Z,99518.88
2019-03-01T13:40:11.780Z,99514.03
2019-03-01T13:42:39.727Z,99504.63
2019-03-01T13:45:11.858Z,99512.23
2019-03-01T13:47:40.667Z,99509.73
2019-03-01T13:50:09.908Z,99506.70
2019-03-01T13:52:37.862Z,99510.60
2019-03-01T13:55:06.140Z,99500.58
2019-03-01T13:57:37.331Z,99494.68
2019-03-01T14:00:06.111Z,99495.09
2019-03-01T14:02:34.028Z,99502.18
2019-03-01T14:05:01.901Z,99496.58
2019-03-01T14:07:29.866Z,99506.08
2019-03-01T14:10:00.880Z,99514.45
2019-03-01T14:12:27.360Z,99508.49
2019-03-01T14:14:55.166Z,99508.84
2019-03-01T14:17:24.600Z,99506.20
2019-03-01T14:19:53.234Z,99513.28
2019-03-01T14:22:21.178Z,99512.50
2019-03-01T14:24:48.961Z,99515.34
2019-03-01T14:27:16.913Z,99507.39
2019-03-01T14:29:44.706Z,99510.31
2019-03-01T14:32:15.301Z,99524.80
2019-03-01T14:34:47.720Z,99523.13
2019-03-01T14:37:15.106Z,99518.68
2019-03-01T14:39:45.391Z,99531.43
2019-03-01T14:42:11.840Z,99536.19
2019-03-01T14:44:39.633Z,99553.23
2019-03-01T14:47:07.683Z,99545.75
2019-03-01T14:49:35.564Z,99547.22
2019-03-01T14:52:03.599Z,99549.17
2019-03-01T14:54:31.481Z,99553.18
2019-03-01T14:57:10.688Z,99550.01
2019-03-01T15:00:14.183Z,99555.39
2019-03-01T15:03:15.919Z,99558.03
2019-03-01T15:05:42.026Z,99555.05
2019-03-01T15:08:10.126Z,99551.45
2019-03-01T15:10:38.015Z,99545.44
2019-03-01T15:13:05.944Z,99551.73
2019-03-01T15:15:33.937Z,99555.33
2019-03-01T15:18:01.977Z,99553.67
2019-03-01T15:20:30.643Z,99554.36
2019-03-01T15:22:58.486Z,99561.28
2019-03-01T15:25:26.386Z,99561.28
2019-03-01T15:27:55.510Z,99557.27
2019-03-01T15:30:23.387Z,99562.54
2019-03-01T15:32:52.574Z,99563.57
2019-03-01T15:35:20.575Z,99557.47
2019-03-01T15:37:48.519Z,99569.80
2019-03-01T15:40:16.590Z,99575.88
2019-03-01T15:42:44.375Z,99577.08
2019-03-01T15:45:12.616Z,99586.06
2019-03-01T15:47:40.439Z,99588.92
2019-03-01T15:50:09.044Z,99587.95
2019-03-01T15:52:36.916Z,99591.20
2019-03-01T15:55:07.726Z,99591.83
2019-03-01T15:57:35.664Z,99596.13
2019-03-01T16:00:04.424Z,99609.63
2019-03-01T16:02:32.272Z,99599.09
2019-03-01T16:05:00.345Z,99601.45
2019-03-01T16:07:29.011Z,99604.77
2019-03-01T16:10:01.100Z,99608.09
2019-03-01T16:12:29.000Z,99609.88
2019-03-01T16:15:00.570Z,99620.00
2019-03-01T16:17:28.528Z,99622.50
2019-03-01T16:19:56.452Z,99638.23
2019-03-01T16:22:24.340Z,99637.19
2019-03-01T16:24:52.194Z,99641.48
2019-03-01T16:27:20.311Z,99646.05
2019-03-01T16:29:49.102Z,99640.22
2019-03-01T16:32:16.965Z,99650.90
2019-03-01T16:34:44.887Z,99649.23
2019-03-01T16:37:12.789Z,99657.95
2019-03-01T16:39:40.636Z,99660.73
2019-03-01T16:42:08.733Z,99662.39
2019-03-01T16:44:36.598Z,99661.08
2019-03-01T16:47:06.695Z,99666.73
2019-03-01T16:49:34.296Z,99670.22
2019-03-01T16:52:02.279Z,99662.09
2019-03-01T16:54:30.158Z,99671.66
2019-03-01T16:56:58.024Z,99671.23
2019-03-01T16:59:25.849Z,99673.05
2019-03-01T17:01:53.631Z,99672.89
2019-03-01T17:04:32.647Z,99678.70
2019-03-01T17:07:01.020Z,99686.40
2019-03-01T17:09:28.836Z,99685.32
2019-03-01T17:11:56.726Z,99688.92
2019-03-01T17:14:24.645Z,99692.40
2019-03-01T17:16:52.408Z,99706.02
2019-03-01T17:19:23.444Z,99711.20
2019-03-01T17:21:51.785Z,99708.92
2019-03-01T17:24:19.762Z,99721.72
2019-03-01T17:26:47.574Z,99723.66
2019-03-01T17:29:15.498Z,99733.48
2019-03-01T17:31:43.398Z,99730.15
2019-03-01T17:34:11.395Z,99726.47
2019-03-01T17:36:40.075Z,99734.71
2019-03-01T17:39:08.140Z,99742.75
2019-03-01T17:41:36.004Z,99745.23
2019-03-01T17:44:08.189Z,99745.15
2019-03-01T17:46:35.449Z,99747.42
2019-03-01T17:49:03.352Z,99743.13
2019-03-01T17:51:31.186Z,99734.81
2019-03-01T17:53:59.065Z,99742.44
2019-03-01T17:56:27.096Z,99748.89
2019-03-01T17:58:55.952Z,99744.37
2019-03-01T18:01:23.895Z,99745.68
2019-03-01T18:03:51.803Z,99748.05
2019-03-01T18:06:22.216Z,99749.24
2019-03-01T18:08:50.208Z,99751.72
2019-03-01T18:11:18.166Z,99756.36
2019-03-01T18:13:46.059Z,99765.92
2019-03-01T18:16:13.888Z,99768.55
2019-03-01T18:18:42.660Z,99766.42
2019-03-01T18:21:13.070Z,99767.38
2019-03-01T18:23:40.223Z,99766.88
2019-03-01T18:26:08.212Z,99772.03
2019-03-01T18:28:36.020Z,99772.84
2019-03-01T18:31:04.066Z,99781.78
2019-03-01T18:33:31.958Z,99786.69
2019-03-01T18:35:59.841Z,99788.63
2019-03-01T18:38:31.313Z,99794.73
2019-03-01T18:40:57.692Z,99801.16
2019-03-01T18:43:25.583Z,99798.06
2019-03-01T18:45:54.095Z,99799.84
2019-03-01T18:48:21.971Z,99796.74
2019-03-01T18:50:49.789Z,99799.84
2019-03-01T18:53:18.384Z,99800.45
2019-03-01T18:55:46.300Z,99815.62
2019-03-01T18:58:14.968Z,99824.01
2019-03-01T19:00:43.407Z,99823.16
2019-03-01T19:03:11.227Z,99821.76
2019-03-01T19:05:40.024Z,99831.31
2019-03-01T19:08:11.706Z,99837.16
2019-03-01T19:10:40.560Z,99846.83
2019-03-01T19:13:08.566Z,99851.39
2019-03-01T19:15:36.528Z,99846.74
2019-03-01T19:18:04.573Z,99853.81
2019-03-01T19:20:32.805Z,99850.95
2019-03-01T19:23:00.873Z,99860.77
2019-03-01T19:25:28.850Z,99862.31
2019-03-01T19:27:57.501Z,99870.73
2019-03-01T19:30:25.502Z,99878.26
2019-03-01T19:32:53.513Z,99884.62
2019-03-01T19:35:28.308Z,99892.58
2019-03-01T19:37:51.308Z,99888.15
2019-03-01T19:40:19.215Z,99895.58
2019-03-01T19:42:47.266Z,99904.54
2019-03-01T19:45:15.872Z,99907.52
2019-03-01T19:47:43.903Z,99924.63
2019-03-01T19:50:14.136Z,99930.45
2019-03-01T19:52:43.396Z,99939.08
2019-03-01T19:55:12.701Z,99937.37
2019-03-01T19:57:40.742Z,99942.95
2019-03-01T20:00:12.047Z,99941.36
2019-03-01T20:02:40.719Z,99944.89
2019-03-01T20:05:10.751Z,99944.55
2019-03-01T20:07:39.007Z,99952.19
2019-03-01T20:10:08.406Z,99951.20
2019-03-01T20:12:40.500Z,99950.69
2019-03-01T20:15:11.250Z,99958.55
2019-03-01T20:17:44.405Z,99962.53
2019-03-01T20:20:11.244Z,99968.84
2019-03-01T20:22:39.256Z,99972.30
2019-03-01T20:25:09.198Z,99969.28
2019-03-01T20:27:39.070Z,99973.19
2019-03-01T20:30:11.157Z,99976.01
2019-03-01T20:32:39.431Z,99977.72
2019-03-01T20:35:09.678Z,99979.54
2019-03-01T20:37:39.941Z,99982.67
2019-03-01T20:40:09.806Z,99981.73
2019-03-01T20:42:37.716Z,99986.77
2019-03-01T20:45:09.134Z,99989.40
2019-03-01T20:47:37.159Z,99992.13
2019-03-01T20:50:05.398Z,99989.17
2019-03-01T20:52:34.813Z,99995.27
2019-03-01T20:55:03.240Z,99994.67
2019-03-01T20:57:31.193Z,99999.81
2019-03-01T20:59:59.186Z,99996.71
2019-03-01T21:02:27.149Z,100003.97
2019-03-01T21:04:55.066Z,99999.92
2019-03-01T21:07:22.930Z,100005.90
2019-03-01T21:09:50.798Z,100012.94
2019-03-01T21:12:18.730Z,100014.95
2019-03-01T21:14:46.637Z,100008.76
2019-03-01T21:17:16.855Z,100017.10
2019-03-01T21:19:44.629Z,100014.91
2019-03-01T21:22:12.721Z,100023.52
2019-03-01T21:24:42.522Z,100022.53
2019-03-01T21:27:10.777Z,100023.00
2019-03-01T21:29:38.685Z,100026.45
2019-03-01T21:32:06.570Z,100026.55
2019-03-01T21:34:34.873Z,100027.73
2019-03-01T21:37:04.190Z,100027.73
2019-03-01T21:39:32.111Z,100032.36
2019-03-01T21:41:59.897Z,100032.48
2019-03-01T21:44:27.828Z,100037.23
2019-03-01T21:46:55.634Z,100032.22
2019-03-01T21:49:23.510Z,100040.41
2019-03-01T21:51:51.738Z,100042.89
2019-03-01T21:54:21.150Z,100040.50
2019-03-01T21:56:55.977Z,100045.25
2019-03-01T21:59:18.883Z,100038.20
2019-03-01T22:01:46.627Z,100044.16
2019-03-01T22:04:14.430Z,100038.28
2019-03-01T22:06:42.304Z,100042.93
2019-03-01T22:09:11.141Z,100046.13
2019-03-01T22:11:38.886Z,100048.34
2019-03-01T22:14:07.588Z,100048.20
2019-03-01T22:16:39.295Z,100049.84
2019-03-01T22:19:07.244Z,100055.15
2019-03-01T22:21:35.118Z,100052.75
2019-03-01T22:24:03.029Z,100055.81
2019-03-01T22:26:30.989Z,100053.53
2019-03-01T22:28:58.806Z,100052.30
2019-03-01T22:31:26.585Z,100053.61
2019-03-01T22:33:55.864Z,100059.16
2019-03-01T22:36:24.237Z,100061.26
2019-03-01T22:38:52.059Z,100061.23
2019-03-01T22:41:19.842Z,100066.47
2019-03-01T22:43:47.727Z,100068.36
2019-03-01T22:46:15.450Z,100069.03
2019-03-01T22:48:47.043Z,100074.02
2019-03-01T22:51:14.566Z,100068.14
2019-03-01T22:53:43.742Z,100067.54
2019-03-01T22:56:12.059Z,100070.73
2019-03-01T22:58:40.822Z,100082.72
2019-03-01T23:01:22.178Z,100079.00
2019-03-01T23:03:58.521Z,100087.43
2019-03-01T23:06:26.473Z,100084.17
2019-03-01T23:08:54.764Z,100092.60
2019-03-01T23:11:22.507Z,100092.53
2019-03-01T23:13:52.797Z,100095.36
2019-03-01T23:16:23.638Z,100099.03
2019-03-01T23:18:56.750Z,100099.98
2019-03-01T23:21:21.546Z,100100.43
2019-03-01T23:23:50.089Z,100101.00
2019-03-01T23:26:18.607Z,100098.72
2019-03-01T23:28:47.609Z,100102.11
2019-03-01T23:31:15.492Z,100107.43
2019-03-01T23:33:43.291Z,100112.05
2019-03-01T23:36:11.902Z,100118.95
2019-03-01T23:38:40.355Z,100109.15
2019-03-01T23:41:11.398Z,100109.36
2019-03-01T23:43:38.242Z,100112.91
2019-03-01T23:46:06.288Z,100113.84
2019-03-01T23:48:34.319Z,100111.44
2019-03-01T23:51:02.228Z,100115.94
2019-03-01T23:53:30.831Z,100113.27
2019-03-01T23:55:59.888Z,100118.22
2019-03-01T23:58:27.741Z,100120.30
